createdAt,value
2019-03-19T00:00:03.072Z,1016.99
2019-03-19T00:01:03.049Z,1017.00
2019-03-19T00:02:03.026Z,1017.03
2019-03-19T00:03:03.003Z,1017.06
2019-03-19T00:04:02.980Z,1017.01
2019-03-19T00:05:02.959Z,1017.05
2019-03-19T00:06:02.942Z,1017.03
2019-03-19T00:07:02.917Z,1017.04
2019-03-19T00:08:02.906Z,1017.06
2019-03-19T00:09:02.874Z,1017.05
2019-03-19T00:10:02.851Z,1017.05
2019-03-19T00:11:02.826Z,1017.04
2019-03-19T00:12:02.809Z,1017.02
2019-03-19T00:13:02.783Z,1017.05
2019-03-19T00:14:02.764Z,1017.03
2019-03-19T00:15:02.748Z,1017.00
2019-03-19T00:16:02.718Z,1017.01
2019-03-19T00:17:02.712Z,1017.03
2019-03-19T00:18:02.673Z,1017.04
2019-03-19T00:19:02.659Z,1017.02
2019-03-19T00:20:02.630Z,1017.01
2019-03-19T00:21:02.611Z,1017.01
2019-03-19T00:22:02.592Z,1017.06
2019-03-19T00:23:02.572Z,1017.01
2019-03-19T00:24:02.542Z,1017.02
2019-03-19T00:25:02.519Z,1017.05
2019-03-19T00:26:02.494Z,1017.05
2019-03-19T00:27:02.487Z,1017.07
2019-03-19T00:28:02.451Z,1017.11
2019-03-19T00:29:02.431Z,1017.11
2019-03-19T00:30:02.411Z,1017.13
2019-03-19T00:31:02.394Z,1017.14
2019-03-19T00:32:02.362Z,1017.15
2019-03-19T00:33:02.346Z,1017.16
2019-03-19T00:34:02.321Z,1017.16
2019-03-19T00:35:02.299Z,1017.12
2019-03-19T00:36:02.277Z,1017.13
2019-03-19T00:37:02.252Z,1017.11
2019-03-19T00:38:02.232Z,1017.09
2019-03-19T00:39:02.210Z,1017.03
2019-03-19T00:40:02.193Z,1017.04
2019-03-19T00:41:02.164Z,1017.07
2019-03-19T00:42:02.143Z,1017.04
2019-03-19T00:43:02.126Z,1017.07
2019-03-19T00:44:02.096Z,1017.07
2019-03-19T00:45:02.076Z,1017.10
2019-03-19T00:46:02.051Z,1017.12
2019-03-19T00:47:02.032Z,1017.14
2019-03-19T00:48:02.007Z,1017.15
2019-03-19T00:49:01.991Z,1017.18
2019-03-19T00:50:01.969Z,1017.17
2019-03-19T00:51:01.949Z,1017.20
2019-03-19T00:52:01.918Z,1017.18
2019-03-19T00:53:01.896Z,1017.19
2019-03-19T00:54:01.875Z,1017.23
2019-03-19T00:55:01.863Z,1017.21
2019-03-19T00:56:01.829Z,1017.25
2019-03-19T00:57:01.806Z,1017.23
2019-03-19T00:58:01.795Z,1017.23
2019-03-19T00:59:01.763Z,1017.20
2019-03-19T01:00:01.743Z,1017.21
2019-03-19T01:01:01.720Z,1017.24
2019-03-19T01:02:01.698Z,1017.18
2019-03-19T01:03:01.677Z,1017.21
2019-03-19T01:04:01.654Z,1017.22
2019-03-19T01:05:01.633Z,1017.26
2019-03-19T01:06:01.607Z,1017.30
2019-03-19T01:07:01.587Z,1017.25
2019-03-19T01:08:01.564Z,1017.30
2019-03-19T01:09:01.544Z,1017.31
2019-03-19T01:10:01.521Z,1017.34
2019-03-19T01:11:01.497Z,1017.38
2019-03-19T01:12:01.473Z,1017.38
2019-03-19T01:13:01.457Z,1017.41
2019-03-19T01:14:01.448Z,1017.41
2019-03-19T01:15:01.413Z,1017.42
2019-03-19T01:16:01.387Z,1017.41
2019-03-19T01:17:01.370Z,1017.42
2019-03-19T01:18:01.344Z,1017.42
2019-03-19T01:19:01.315Z,1017.44
2019-03-19T01:20:01.299Z,1017.41
2019-03-19T01:21:01.275Z,1017.41
2019-03-19T01:22:01.268Z,1017.42
2019-03-19T01:23:01.229Z,1017.39
2019-03-19T01:24:01.210Z,1017.37
2019-03-19T01:25:01.183Z,1017.38
2019-03-19T01:26:01.162Z,1017.39
2019-03-19T01:27:01.143Z,1017.37
2019-03-19T01:28:01.115Z,1017.37
2019-03-19T01:29:01.100Z,1017.41
2019-03-19T01:30:01.072Z,1017.34
2019-03-19T01:31:01.048Z,1017.39
2019-03-19T01:32:01.029Z,1017.37
2019-03-19T01:33:01.007Z,1017.41
2019-03-19T01:34:00.982Z,1017.43
2019-03-19T01:35:00.960Z,1017.42
2019-03-19T01:36:00.938Z,1017.47
2019-03-19T01:37:00.937Z,1017.46
2019-03-19T01:38:00.895Z,1017.46
2019-03-19T01:39:00.875Z,1017.44
2019-03-19T01:40:00.849Z,1017.39
2019-03-19T01:41:00.826Z,1017.40
2019-03-19T01:42:00.810Z,1017.41
2019-03-19T01:43:00.782Z,1017.43
2019-03-19T01:44:00.759Z,1017.43
2019-03-19T01:45:00.742Z,1017.43
2019-03-19T01:46:00.715Z,1017.45
2019-03-19T01:47:00.691Z,1017.49
2019-03-19T01:48:00.676Z,1017.53
2019-03-19T01:49:00.665Z,1017.50
2019-03-19T01:50:00.625Z,1017.50
2019-03-19T01:51:00.605Z,1017.50
2019-03-19T01:52:00.588Z,1017.45
2019-03-19T01:53:00.562Z,1017.45
2019-03-19T01:54:00.546Z,1017.43
2019-03-19T01:55:00.521Z,1017.41
2019-03-19T01:56:05.050Z,1017.40
2019-03-19T01:57:00.471Z,1017.40
2019-03-19T01:58:00.448Z,1017.38
2019-03-19T01:59:00.423Z,1017.49
2019-03-19T02:00:00.404Z,1017.47
2019-03-19T02:01:00.387Z,1017.46
2019-03-19T02:02:00.362Z,1017.51
2019-03-19T02:03:00.339Z,1017.46
2019-03-19T02:04:00.317Z,1017.51
2019-03-19T02:05:00.510Z,1017.50
2019-03-19T02:06:00.269Z,1017.53
2019-03-19T02:07:00.246Z,1017.50
2019-03-19T02:08:00.225Z,1017.54
2019-03-19T02:09:00.203Z,1017.53
2019-03-19T02:10:00.321Z,1017.56
2019-03-19T02:11:00.157Z,1017.58
2019-03-19T02:12:00.131Z,1017.56
2019-03-19T02:13:00.112Z,1017.59
2019-03-19T02:14:00.089Z,1017.57
2019-03-19T02:15:00.065Z,1017.58
2019-03-19T02:16:00.044Z,1017.63
2019-03-19T02:17:00.025Z,1017.65
2019-03-19T02:17:59.999Z,1017.63
2019-03-19T02:18:59.975Z,1017.67
2019-03-19T02:19:59.953Z,1017.64
2019-03-19T02:20:59.931Z,1017.61
2019-03-19T02:21:59.910Z,1017.59
2019-03-19T02:22:59.909Z,1017.61
2019-03-19T02:23:59.864Z,1017.60
2019-03-19T02:24:59.841Z,1017.64
2019-03-19T02:25:59.820Z,1017.66
2019-03-19T02:26:59.798Z,1017.63
2019-03-19T02:27:59.774Z,1017.65
2019-03-19T02:28:59.752Z,1017.66
2019-03-19T02:29:59.728Z,1017.69
2019-03-19T02:30:59.715Z,1017.71
2019-03-19T02:31:59.686Z,1017.71
2019-03-19T02:32:59.666Z,1017.73
2019-03-19T02:33:59.676Z,1017.78
2019-03-19T02:34:59.617Z,1017.78
2019-03-19T02:35:59.596Z,1017.81
2019-03-19T02:36:59.574Z,1017.83
2019-03-19T02:37:59.564Z,1017.86
2019-03-19T02:38:59.552Z,1017.84
2019-03-19T02:39:59.503Z,1017.87
2019-03-19T02:40:59.486Z,1017.88
2019-03-19T02:41:59.517Z,1017.86
2019-03-19T02:42:59.435Z,1017.85
2019-03-19T02:43:59.418Z,1017.86
2019-03-19T02:44:59.397Z,1017.86
2019-03-19T02:45:59.371Z,1017.83
2019-03-19T02:46:59.350Z,1017.86
2019-03-19T02:47:59.332Z,1017.85
2019-03-19T02:48:59.304Z,1017.90
2019-03-19T02:49:59.282Z,1017.90
2019-03-19T02:50:59.265Z,1017.92
2019-03-19T02:51:59.239Z,1017.93
2019-03-19T02:52:59.213Z,1017.93
2019-03-19T02:53:59.193Z,1018.01
2019-03-19T02:54:59.167Z,1018.02
2019-03-19T02:55:59.145Z,1018.03
2019-03-19T02:56:59.121Z,1018.03
2019-03-19T02:57:59.102Z,1018.04
2019-03-19T02:58:59.077Z,1018.04
2019-03-19T02:59:59.057Z,1018.02
2019-03-19T03:00:59.039Z,1018.01
2019-03-19T03:01:59.022Z,1017.99
2019-03-19T03:02:58.988Z,1017.95
2019-03-19T03:03:58.964Z,1017.96
2019-03-19T03:04:58.944Z,1017.99
2019-03-19T03:05:58.947Z,1018.01
2019-03-19T03:06:58.902Z,1018.07
2019-03-19T03:07:58.885Z,1018.09
2019-03-19T03:08:58.851Z,1018.10
2019-03-19T03:09:58.847Z,1018.16
2019-03-19T03:10:58.808Z,1018.20
2019-03-19T03:11:58.784Z,1018.22
2019-03-19T03:12:58.845Z,1018.18
2019-03-19T03:13:58.741Z,1018.21
2019-03-19T03:14:58.716Z,1018.17
2019-03-19T03:15:58.693Z,1018.16
2019-03-19T03:16:58.681Z,1018.18
2019-03-19T03:17:58.654Z,1018.20
2019-03-19T03:18:58.626Z,1018.21
2019-03-19T03:19:58.606Z,1018.14
2019-03-19T03:20:58.579Z,1018.20
2019-03-19T03:21:58.560Z,1018.20
2019-03-19T03:22:58.535Z,1018.19
2019-03-19T03:23:58.522Z,1018.15
2019-03-19T03:24:58.488Z,1018.16
2019-03-19T03:25:58.471Z,1018.16
2019-03-19T03:26:58.450Z,1018.18
2019-03-19T03:27:58.421Z,1018.19
2019-03-19T03:28:58.404Z,1018.18
2019-03-19T03:29:58.378Z,1018.18
2019-03-19T03:30:58.365Z,1018.18
2019-03-19T03:31:58.334Z,1018.19
2019-03-19T03:32:58.331Z,1018.20
2019-03-19T03:33:58.299Z,1018.17
2019-03-19T03:34:58.272Z,1018.19
2019-03-19T03:35:58.240Z,1018.24
2019-03-19T03:36:58.223Z,1018.21
2019-03-19T03:37:58.194Z,1018.20
2019-03-19T03:38:58.180Z,1018.21
2019-03-19T03:39:58.160Z,1018.22
2019-03-19T03:40:58.127Z,1018.21
2019-03-19T03:41:58.108Z,1018.17
2019-03-19T03:42:58.088Z,1018.15
2019-03-19T03:43:58.073Z,1018.18
2019-03-19T03:44:58.036Z,1018.16
2019-03-19T03:45:58.034Z,1018.19
2019-03-19T03:46:57.996Z,1018.17
2019-03-19T03:47:57.972Z,1018.23
2019-03-19T03:48:57.953Z,1018.23
2019-03-19T03:49:57.930Z,1018.24
2019-03-19T03:50:57.915Z,1018.24
2019-03-19T03:51:57.878Z,1018.25
2019-03-19T03:52:57.862Z,1018.26
2019-03-19T03:53:57.844Z,1018.26
2019-03-19T03:54:57.814Z,1018.34
2019-03-19T03:55:57.788Z,1018.33
2019-03-19T03:57:02.235Z,1018.34
2019-03-19T03:57:57.744Z,1018.35
2019-03-19T03:59:01.102Z,1018.34
2019-03-19T03:59:57.694Z,1018.35
2019-03-19T04:00:57.674Z,1018.36
2019-03-19T04:01:57.650Z,1018.36
2019-03-19T04:02:57.624Z,1018.35
2019-03-19T04:03:57.603Z,1018.39
2019-03-19T04:04:57.580Z,1018.36
2019-03-19T04:05:57.680Z,1018.41
2019-03-19T04:06:57.539Z,1018.42
2019-03-19T04:07:57.519Z,1018.38
2019-03-19T04:08:57.491Z,1018.42
2019-03-19T04:09:57.472Z,1018.43
2019-03-19T04:10:57.445Z,1018.47
2019-03-19T04:11:57.427Z,1018.51
2019-03-19T04:12:57.398Z,1018.50
2019-03-19T04:13:57.379Z,1018.55
2019-03-19T04:14:57.357Z,1018.58
2019-03-19T04:15:57.330Z,1018.60
2019-03-19T04:16:57.307Z,1018.63
2019-03-19T04:17:57.283Z,1018.65
2019-03-19T04:18:57.264Z,1018.62
2019-03-19T04:19:57.248Z,1018.65
2019-03-19T04:20:57.212Z,1018.66
2019-03-19T04:21:57.191Z,1018.70
2019-03-19T04:22:57.165Z,1018.67
2019-03-19T04:23:57.145Z,1018.69
2019-03-19T04:24:57.125Z,1018.69
2019-03-19T04:25:57.097Z,1018.68
2019-03-19T04:26:57.085Z,1018.67
2019-03-19T04:27:57.056Z,1018.70
2019-03-19T04:28:57.034Z,1018.69
2019-03-19T04:29:57.009Z,1018.73
2019-03-19T04:30:56.985Z,1018.69
2019-03-19T04:31:56.970Z,1018.69
2019-03-19T04:32:56.937Z,1018.70
2019-03-19T04:33:56.913Z,1018.68
2019-03-19T04:34:56.890Z,1018.72
2019-03-19T04:35:56.870Z,1018.70
2019-03-19T04:36:56.848Z,1018.72
2019-03-19T04:37:56.822Z,1018.71
2019-03-19T04:38:56.796Z,1018.71
2019-03-19T04:39:56.794Z,1018.71
2019-03-19T04:40:56.751Z,1018.75
2019-03-19T04:41:56.732Z,1018.77
2019-03-19T04:42:56.707Z,1018.78
2019-03-19T04:43:56.694Z,1018.81
2019-03-19T04:44:56.665Z,1018.83
2019-03-19T04:45:56.638Z,1018.81
2019-03-19T04:46:56.613Z,1018.81
2019-03-19T04:47:56.590Z,1018.83
2019-03-19T04:48:56.567Z,1018.83
2019-03-19T04:49:56.548Z,1018.86
2019-03-19T04:50:56.523Z,1018.82
2019-03-19T04:51:56.499Z,1018.85
2019-03-19T04:52:56.475Z,1018.88
2019-03-19T04:53:56.451Z,1018.89
2019-03-19T04:54:56.433Z,1018.85
2019-03-19T04:55:56.410Z,1018.85
2019-03-19T04:56:56.382Z,1018.87
2019-03-19T04:57:56.359Z,1018.89
2019-03-19T04:58:56.333Z,1018.88
2019-03-19T04:59:56.314Z,1018.95
2019-03-19T05:00:56.290Z,1018.92
2019-03-19T05:01:56.263Z,1019.00
2019-03-19T05:02:56.243Z,1019.00
2019-03-19T05:03:56.214Z,1019.02
2019-03-19T05:04:56.198Z,1019.05
2019-03-19T05:05:56.173Z,1019.01
2019-03-19T05:06:56.149Z,1019.01
2019-03-19T05:07:56.136Z,1019.00
2019-03-19T05:08:56.102Z,1019.03
2019-03-19T05:09:56.077Z,1019.00
2019-03-19T05:10:56.055Z,1018.99
2019-03-19T05:11:56.031Z,1018.95
2019-03-19T05:12:56.007Z,1018.93
2019-03-19T05:13:55.989Z,1018.89
2019-03-19T05:14:55.963Z,1018.89
2019-03-19T05:15:55.936Z,1018.90
2019-03-19T05:16:55.918Z,1018.91
2019-03-19T05:17:55.887Z,1018.93
2019-03-19T05:18:55.880Z,1018.93
2019-03-19T05:19:55.845Z,1018.94
2019-03-19T05:20:55.828Z,1018.97
2019-03-19T05:21:55.795Z,1019.02
2019-03-19T05:22:55.771Z,1019.03
2019-03-19T05:23:55.749Z,1019.08
2019-03-19T05:24:55.728Z,1019.10
2019-03-19T05:25:55.705Z,1019.12
2019-03-19T05:26:55.679Z,1019.18
2019-03-19T05:27:55.659Z,1019.15
2019-03-19T05:28:55.641Z,1019.18
2019-03-19T05:29:55.609Z,1019.20
2019-03-19T05:30:55.588Z,1019.20
2019-03-19T05:31:55.562Z,1019.22
2019-03-19T05:32:55.544Z,1019.23
2019-03-19T05:33:55.517Z,1019.22
2019-03-19T05:34:55.493Z,1019.23
2019-03-19T05:35:55.472Z,1019.19
2019-03-19T05:36:55.450Z,1019.20
2019-03-19T05:37:55.426Z,1019.18
2019-03-19T05:38:55.399Z,1019.19
2019-03-19T05:39:55.379Z,1019.19
2019-03-19T05:40:55.349Z,1019.23
2019-03-19T05:41:55.330Z,1019.23
2019-03-19T05:42:55.303Z,1019.22
2019-03-19T05:43:55.284Z,1019.27
2019-03-19T05:44:55.259Z,1019.23
2019-03-19T05:45:55.233Z,1019.26
2019-03-19T05:46:55.214Z,1019.27
2019-03-19T05:47:55.187Z,1019.26
2019-03-19T05:48:55.165Z,1019.24
2019-03-19T05:49:55.145Z,1019.26
2019-03-19T05:50:55.122Z,1019.29
2019-03-19T05:51:55.100Z,1019.36
2019-03-19T05:52:55.071Z,1019.35
2019-03-19T05:53:55.048Z,1019.38
2019-03-19T05:54:55.025Z,1019.35
2019-03-19T05:55:55.003Z,1019.34
2019-03-19T05:56:54.978Z,1019.38
2019-03-19T05:57:54.954Z,1019.34
2019-03-19T05:58:54.931Z,1019.33
2019-03-19T05:59:54.911Z,1019.35
2019-03-19T06:00:54.885Z,1019.37
2019-03-19T06:01:54.861Z,1019.39
2019-03-19T06:02:54.836Z,1019.47
2019-03-19T06:03:54.821Z,1019.46
2019-03-19T06:04:54.801Z,1019.48
2019-03-19T06:05:54.769Z,1019.52
2019-03-19T06:06:54.749Z,1019.53
2019-03-19T06:07:54.728Z,1019.52
2019-03-19T06:08:54.701Z,1019.52
2019-03-19T06:09:54.677Z,1019.55
2019-03-19T06:10:54.656Z,1019.52
2019-03-19T06:11:54.654Z,1019.51
2019-03-19T06:12:54.608Z,1019.52
2019-03-19T06:13:54.584Z,1019.55
2019-03-19T06:14:54.561Z,1019.55
2019-03-19T06:15:54.540Z,1019.56
2019-03-19T06:16:54.522Z,1019.58
2019-03-19T06:17:54.500Z,1019.59
2019-03-19T06:18:54.469Z,1019.64
2019-03-19T06:19:54.445Z,1019.67
2019-03-19T06:20:54.421Z,1019.72
2019-03-19T06:21:56.649Z,1019.75
2019-03-19T06:22:54.376Z,1019.78
2019-03-19T06:23:54.357Z,1019.80
2019-03-19T06:24:54.331Z,1019.76
2019-03-19T06:25:54.318Z,1019.81
2019-03-19T06:26:54.289Z,1019.79
2019-03-19T06:28:00.394Z,1019.83
2019-03-19T06:28:54.241Z,1019.85
2019-03-19T06:29:54.220Z,1019.90
2019-03-19T06:30:54.194Z,1019.91
2019-03-19T06:31:54.176Z,1019.93
2019-03-19T06:32:54.145Z,1019.95
2019-03-19T06:33:54.123Z,1019.97
2019-03-19T06:34:54.099Z,1019.96
2019-03-19T06:35:54.078Z,1020.02
2019-03-19T06:36:54.080Z,1020.06
2019-03-19T06:37:54.036Z,1020.07
2019-03-19T06:38:54.007Z,1020.09
2019-03-19T06:39:53.987Z,1020.07
2019-03-19T06:40:53.966Z,1020.09
2019-03-19T06:41:53.950Z,1020.14
2019-03-19T06:42:53.918Z,1020.10
2019-03-19T06:43:53.896Z,1020.17
2019-03-19T06:44:53.878Z,1020.10
2019-03-19T06:45:53.857Z,1020.08
2019-03-19T06:46:53.829Z,1020.09
2019-03-19T06:47:53.813Z,1020.11
2019-03-19T06:48:53.785Z,1020.13
2019-03-19T06:49:53.771Z,1020.15
2019-03-19T06:50:53.740Z,1020.17
2019-03-19T06:51:53.722Z,1020.18
2019-03-19T06:52:53.697Z,1020.23
2019-03-19T06:53:53.694Z,1020.25
2019-03-19T06:54:53.660Z,1020.27
2019-03-19T06:55:53.632Z,1020.26
2019-03-19T06:56:53.610Z,1020.30
2019-03-19T06:57:53.591Z,1020.24
2019-03-19T06:58:53.568Z,1020.22
2019-03-19T06:59:53.550Z,1020.23
2019-03-19T07:00:53.528Z,1020.20
2019-03-19T07:01:53.507Z,1020.21
2019-03-19T07:02:53.490Z,1020.22
2019-03-19T07:03:53.471Z,1020.25
2019-03-19T07:04:53.449Z,1020.24
2019-03-19T07:05:53.430Z,1020.25
2019-03-19T07:06:53.415Z,1020.27
2019-03-19T07:07:53.394Z,1020.32
2019-03-19T07:08:53.385Z,1020.36
2019-03-19T07:09:53.368Z,1020.48
2019-03-19T07:10:53.363Z,1020.63
2019-03-19T07:11:53.334Z,1020.69
2019-03-19T07:12:53.327Z,1020.72
2019-03-19T07:13:53.306Z,1020.75
2019-03-19T07:14:53.288Z,1020.79
2019-03-19T07:15:53.275Z,1020.79
2019-03-19T07:16:53.270Z,1020.88
2019-03-19T07:17:53.264Z,1020.90
2019-03-19T07:18:53.239Z,1020.90
2019-03-19T07:19:53.227Z,1020.95
2019-03-19T07:20:53.213Z,1020.97
2019-03-19T07:21:53.207Z,1020.99
2019-03-19T07:22:53.190Z,1021.11
2019-03-19T07:23:53.182Z,1021.07
2019-03-19T07:24:53.178Z,1021.11
2019-03-19T07:25:53.166Z,1021.15
2019-03-19T07:26:53.150Z,1021.17
2019-03-19T07:27:53.141Z,1021.21
2019-03-19T07:28:53.134Z,1021.19
2019-03-19T07:29:53.123Z,1021.20
2019-03-19T07:30:53.114Z,1021.26
2019-03-19T07:31:53.106Z,1021.22
2019-03-19T07:32:53.104Z,1021.25
2019-03-19T07:33:53.087Z,1021.31
2019-03-19T07:34:53.081Z,1021.34
2019-03-19T07:35:53.071Z,1021.35
2019-03-19T07:36:53.065Z,1021.36
2019-03-19T07:37:53.061Z,1021.38
2019-03-19T07:38:53.062Z,1021.41
2019-03-19T07:39:53.050Z,1021.42
2019-03-19T07:40:53.035Z,1021.45
2019-03-19T07:41:53.030Z,1021.52
2019-03-19T07:42:53.028Z,1021.58
2019-03-19T07:43:53.017Z,1021.53
2019-03-19T07:44:53.012Z,1021.55
2019-03-19T07:45:53.018Z,1021.57
2019-03-19T07:46:53.002Z,1021.61
2019-03-19T07:47:53.006Z,1021.61
2019-03-19T07:48:52.998Z,1021.60
2019-03-19T07:49:52.987Z,1021.64
2019-03-19T07:50:52.983Z,1021.69
2019-03-19T07:51:53.576Z,1021.69
2019-03-19T07:52:52.978Z,1021.67
2019-03-19T07:53:52.973Z,1021.70
2019-03-19T07:54:52.965Z,1021.73
2019-03-19T07:55:53.564Z,1021.74
2019-03-19T07:56:52.958Z,1021.74
2019-03-19T07:57:52.958Z,1021.76
2019-03-19T07:58:52.949Z,1021.78
2019-03-19T07:59:52.972Z,1021.81
2019-03-19T08:00:52.944Z,1021.81
2019-03-19T08:01:52.942Z,1021.82
2019-03-19T08:02:52.938Z,1021.76
2019-03-19T08:03:52.937Z,1021.77
2019-03-19T08:04:52.940Z,1021.78
2019-03-19T08:05:52.937Z,1021.77
2019-03-19T08:06:52.931Z,1021.80
2019-03-19T08:07:52.939Z,1021.85
2019-03-19T08:08:52.926Z,1021.92
2019-03-19T08:09:52.926Z,1021.97
2019-03-19T08:10:52.926Z,1021.99
2019-03-19T08:11:52.930Z,1022.05
2019-03-19T08:12:52.922Z,1022.08
2019-03-19T08:13:52.924Z,1022.12
2019-03-19T08:14:52.931Z,1022.11
2019-03-19T08:15:52.924Z,1022.08
2019-03-19T08:16:53.367Z,1022.12
2019-03-19T08:17:52.918Z,1022.13
2019-03-19T08:18:52.913Z,1022.13
2019-03-19T08:19:52.921Z,1022.20
2019-03-19T08:20:52.916Z,1022.23
2019-03-19T08:21:52.911Z,1022.23
2019-03-19T08:22:52.915Z,1022.21
2019-03-19T08:23:52.910Z,1022.27
2019-03-19T08:24:52.917Z,1022.28
2019-03-19T08:25:52.916Z,1022.26
2019-03-19T08:26:52.913Z,1022.29
2019-03-19T08:27:52.909Z,1022.30
2019-03-19T08:28:55.525Z,1022.35
2019-03-19T08:29:52.913Z,1022.36
2019-03-19T08:30:52.910Z,1022.36
2019-03-19T08:31:52.912Z,1022.39
2019-03-19T08:32:52.910Z,1022.39
2019-03-19T08:33:52.910Z,1022.40
2019-03-19T08:34:52.909Z,1022.42
2019-03-19T08:35:52.918Z,1022.45
2019-03-19T08:36:52.911Z,1022.43
2019-03-19T08:37:52.917Z,1022.44
2019-03-19T08:38:52.911Z,1022.45
2019-03-19T08:39:52.916Z,1022.47
2019-03-19T08:40:52.913Z,1022.47
2019-03-19T08:41:52.917Z,1022.50
2019-03-19T08:42:52.915Z,1022.53
2019-03-19T08:43:52.916Z,1022.56
2019-03-19T08:44:52.913Z,1022.59
2019-03-19T08:45:52.919Z,1022.60
2019-03-19T08:46:52.913Z,1022.63
2019-03-19T08:47:52.916Z,1022.62
2019-03-19T08:48:52.917Z,1022.59
2019-03-19T08:49:52.916Z,1022.61
2019-03-19T08:50:52.923Z,1022.62
2019-03-19T08:51:52.921Z,1022.71
2019-03-19T08:52:55.233Z,1022.71
2019-03-19T08:53:52.918Z,1022.74
2019-03-19T08:54:52.921Z,1022.74
2019-03-19T08:55:52.927Z,1022.81
2019-03-19T08:56:52.918Z,1022.72
2019-03-19T08:57:52.923Z,1022.74
2019-03-19T08:58:52.925Z,1022.75
2019-03-19T08:59:52.922Z,1022.80
2019-03-19T09:00:52.919Z,1022.72
2019-03-19T09:01:52.921Z,1022.43
2019-03-19T09:02:52.978Z,1022.24
2019-03-19T09:03:52.924Z,1022.87
2019-03-19T09:04:52.939Z,1022.90
2019-03-19T09:05:52.922Z,1022.16
2019-03-19T09:06:52.925Z,1022.95
2019-03-19T09:07:52.918Z,1022.98
2019-03-19T09:08:52.921Z,1022.70
2019-03-19T09:09:52.920Z,1021.97
2019-03-19T09:10:52.922Z,1022.09
2019-03-19T09:11:52.917Z,1022.84
2019-03-19T09:12:52.916Z,1022.82
2019-03-19T09:13:52.908Z,1022.96
2019-03-19T09:14:52.901Z,1022.90
2019-03-19T09:15:52.911Z,1022.89
2019-03-19T09:16:52.903Z,1022.90
2019-03-19T09:17:52.899Z,1022.74
2019-03-19T09:18:52.909Z,1022.54
2019-03-19T09:19:52.891Z,1022.17
2019-03-19T09:20:54.078Z,1022.84
2019-03-19T09:21:52.882Z,1022.01
2019-03-19T09:22:52.881Z,1022.07
2019-03-19T09:23:52.875Z,1022.85
2019-03-19T09:24:52.879Z,1022.04
2019-03-19T09:25:52.871Z,1022.00
2019-03-19T09:26:52.861Z,1021.92
2019-03-19T09:27:52.853Z,1022.04
2019-03-19T09:28:52.899Z,1021.98
2019-03-19T09:29:52.849Z,1021.93
2019-03-19T09:30:52.842Z,1021.91
2019-03-19T09:31:52.827Z,1021.89
2019-03-19T09:32:52.821Z,1021.86
2019-03-19T09:33:52.811Z,1021.87
2019-03-19T09:34:52.806Z,1021.87
2019-03-19T09:35:52.799Z,1021.89
2019-03-19T09:36:57.330Z,1021.83
2019-03-19T09:37:58.461Z,1021.79
2019-03-19T09:38:52.764Z,1021.84
2019-03-19T09:39:52.756Z,1021.85
2019-03-19T09:40:52.748Z,1021.82
2019-03-19T09:41:52.735Z,1021.84
2019-03-19T09:42:52.723Z,1022.48
2019-03-19T09:43:53.673Z,1021.76
2019-03-19T09:44:58.512Z,1021.76
2019-03-19T09:45:52.689Z,1021.78
2019-03-19T09:46:52.684Z,1021.73
2019-03-19T09:47:52.665Z,1021.73
2019-03-19T09:48:52.663Z,1021.70
2019-03-19T09:49:52.646Z,1021.68
2019-03-19T09:50:52.630Z,1021.71
2019-03-19T09:51:52.618Z,1021.72
2019-03-19T09:52:52.610Z,1021.74
2019-03-19T09:53:52.595Z,1021.73
2019-03-19T09:54:52.582Z,1021.72
2019-03-19T09:55:52.567Z,1021.77
2019-03-19T09:56:52.557Z,1021.74
2019-03-19T09:57:52.547Z,1021.76
2019-03-19T09:58:52.528Z,1021.78
2019-03-19T09:59:52.519Z,1021.79
2019-03-19T10:00:52.501Z,1021.81
2019-03-19T10:01:52.489Z,1021.85
2019-03-19T10:02:52.477Z,1022.00
2019-03-19T10:03:52.459Z,1021.98
2019-03-19T10:04:52.460Z,1022.02
2019-03-19T10:05:52.433Z,1022.01
2019-03-19T10:06:52.416Z,1022.04
2019-03-19T10:07:52.419Z,1021.91
2019-03-19T10:08:52.396Z,1021.84
2019-03-19T10:09:52.393Z,1021.88
2019-03-19T10:10:52.630Z,1021.86
2019-03-19T10:11:52.355Z,1021.84
2019-03-19T10:12:52.350Z,1021.88
2019-03-19T10:13:52.328Z,1021.87
2019-03-19T10:14:52.317Z,1021.92
2019-03-19T10:15:52.301Z,1021.92
2019-03-19T10:16:52.308Z,1021.93
2019-03-19T10:17:52.279Z,1022.10
2019-03-19T10:18:52.259Z,1022.08
2019-03-19T10:19:52.251Z,1022.10
2019-03-19T10:20:52.235Z,1022.09
2019-03-19T10:21:52.232Z,1022.08
2019-03-19T10:22:52.206Z,1022.03
2019-03-19T10:23:52.196Z,1022.02
2019-03-19T10:24:52.183Z,1022.07
2019-03-19T10:25:52.173Z,1022.06
2019-03-19T10:26:52.157Z,1022.02
2019-03-19T10:27:52.177Z,1022.07
2019-03-19T10:28:52.143Z,1021.98
2019-03-19T10:29:52.122Z,1022.07
2019-03-19T10:30:52.109Z,1022.06
2019-03-19T10:31:52.106Z,1022.03
2019-03-19T10:32:52.086Z,1022.07
2019-03-19T10:33:52.074Z,1022.10
2019-03-19T10:34:52.061Z,1022.04
2019-03-19T10:35:52.051Z,1022.11
2019-03-19T10:36:52.042Z,1022.03
2019-03-19T10:37:52.040Z,1021.95
2019-03-19T10:38:52.027Z,1021.98
2019-03-19T10:39:52.006Z,1021.95
2019-03-19T10:40:52.003Z,1021.93
2019-03-19T10:41:51.983Z,1021.96
2019-03-19T10:42:51.978Z,1021.98
2019-03-19T10:43:51.959Z,1021.97
2019-03-19T10:44:51.956Z,1022.03
2019-03-19T10:45:51.939Z,1022.04
2019-03-19T10:46:51.927Z,1022.19
2019-03-19T10:47:51.911Z,1022.09
2019-03-19T10:48:51.924Z,1022.08
2019-03-19T10:49:51.902Z,1022.12
2019-03-19T10:50:51.875Z,1022.10
2019-03-19T10:51:51.869Z,1022.13
2019-03-19T10:52:51.864Z,1022.17
2019-03-19T10:53:51.840Z,1022.08
2019-03-19T10:54:51.834Z,1022.14
2019-03-19T10:55:51.824Z,1022.16
2019-03-19T10:56:51.810Z,1022.12
2019-03-19T10:57:51.794Z,1022.30
2019-03-19T10:58:51.773Z,1022.30
2019-03-19T10:59:51.769Z,1022.28
2019-03-19T11:00:51.763Z,1022.23
2019-03-19T11:01:51.737Z,1022.34
2019-03-19T11:02:51.725Z,1022.36
2019-03-19T11:03:51.711Z,1022.22
2019-03-19T11:04:51.701Z,1022.20
2019-03-19T11:05:51.684Z,1022.16
2019-03-19T11:06:51.682Z,1022.17
2019-03-19T11:07:51.664Z,1022.23
2019-03-19T11:08:51.652Z,1022.10
2019-03-19T11:09:51.664Z,1022.16
2019-03-19T11:10:51.624Z,1022.19
2019-03-19T11:11:51.606Z,1022.15
2019-03-19T11:12:51.592Z,1022.21
2019-03-19T11:13:51.582Z,1022.34
2019-03-19T11:14:51.566Z,1022.27
2019-03-19T11:15:51.554Z,1022.30
2019-03-19T11:16:51.539Z,1022.33
2019-03-19T11:17:51.529Z,1022.34
2019-03-19T11:18:51.515Z,1022.29
2019-03-19T11:19:51.498Z,1022.28
2019-03-19T11:20:51.497Z,1022.28
2019-03-19T11:21:51.477Z,1022.22
2019-03-19T11:22:51.470Z,1022.20
2019-03-19T11:23:51.453Z,1022.21
2019-03-19T11:24:51.431Z,1022.17
2019-03-19T11:25:54.669Z,1022.21
2019-03-19T11:26:51.411Z,1022.24
2019-03-19T11:27:51.394Z,1022.21
2019-03-19T11:28:51.381Z,1022.26
2019-03-19T11:29:59.446Z,1022.32
2019-03-19T11:30:51.352Z,1022.27
2019-03-19T11:31:51.335Z,1022.22
2019-03-19T11:32:51.319Z,1022.19
2019-03-19T11:33:51.311Z,1022.23
2019-03-19T11:34:51.293Z,1022.21
2019-03-19T11:35:51.279Z,1022.15
2019-03-19T11:36:57.770Z,1022.26
2019-03-19T11:37:51.251Z,1022.22
2019-03-19T11:38:51.238Z,1022.11
2019-03-19T11:39:51.273Z,1022.10
2019-03-19T11:40:51.210Z,1022.10
2019-03-19T11:41:51.197Z,1022.12
2019-03-19T11:42:51.188Z,1022.24
2019-03-19T11:43:51.168Z,1022.19
2019-03-19T11:44:51.156Z,1022.13
2019-03-19T11:45:51.143Z,1022.18
2019-03-19T11:46:53.496Z,1022.13
2019-03-19T11:47:51.126Z,1022.15
2019-03-19T11:48:51.105Z,1022.25
2019-03-19T11:49:51.092Z,1022.28
2019-03-19T11:50:51.081Z,1022.23
2019-03-19T11:51:51.061Z,1022.18
2019-03-19T11:52:51.047Z,1022.21
2019-03-19T11:53:51.033Z,1022.21
2019-03-19T11:54:51.031Z,1022.26
2019-03-19T11:55:51.006Z,1022.29
2019-03-19T11:56:50.993Z,1022.26
2019-03-19T11:57:50.983Z,1022.30
2019-03-19T11:58:50.967Z,1022.31
2019-03-19T11:59:50.953Z,1022.35
2019-03-19T12:00:50.948Z,1022.33
2019-03-19T12:01:50.930Z,1022.31
2019-03-19T12:02:50.914Z,1022.26
2019-03-19T12:03:50.908Z,1022.12
2019-03-19T12:04:50.895Z,1022.18